sensor_id;sensor_type;location;lat;lon;timestamp;temperature;humidity
2212;DHT22;48849;48.758;9.158;2024-02-16T00:01:54;12.60;99.90
2212;DHT22;48849;48.758;9.158;2024-02-16T00:06:48;12.70;99.90
2212;DHT22;48849;48.758;9.158;2024-02-16T00:09:16;12.70;99.90
2212;DHT22;48849;48.758;9.158;2024-02-16T00:11:42;12.70;99.90
2212;DHT22;48849;48.758;9.158;2024-02-16T00:19:04;12.60;99.90
2212;DHT22;48849;48.758;9.158;2024-02-16T00:21:30;12.60;99.90
2212;DHT22;48849;48.758;9.158;2024-02-16T00:23:56;12.70;99.90
2212;DHT22;48849;48.758;9.158;2024-02-16T00:26:24;12.70;99.90
2212;DHT22;48849;48.758;9.158;2024-02-16T00:28:51;12.70;99.90
2212;DHT22;48849;48.758;9.158;2024-02-16T00:33:45;12.70;99.90
2212;DHT22;48849;48.758;9.158;2024-02-16T00:38:39;12.70;99.90
2212;DHT22;48849;48.758;9.158;2024-02-16T00:43:35;12.70;99.90
2212;DHT22;48849;48.758;9.158;2024-02-16T00:50:55;12.60;99.90
2212;DHT22;48849;48.758;9.158;2024-02-16T00:53:22;12.60;99.90
2212;DHT22;48849;48.758;9.158;2024-02-16T00:55:50;12.70;99.90
2212;DHT22;48849;48.758;9.158;2024-02-16T00:58:16;12.60;99.90
2212;DHT22;48849;48.758;9.158;2024-02-16T01:00:46;12.60;99.90
2212;DHT22;48849;48.758;9.158;2024-02-16T01:03:13;12.60;99.90
2212;DHT22;48849;48.758;9.158;2024-02-16T01:05:40;12.70;99.90
2212;DHT22;48849;48.758;9.158;2024-02-16T01:08:07;12.60;99.90
2212;DHT22;48849;48.758;9.158;2024-02-16T01:10:33;12.60;99.90
2212;DHT22;48849;48.758;9.158;2024-02-16T01:15:29;12.60;99.90
2212;DHT22;48849;48.758;9.158;2024-02-16T01:17:57;12.60;99.90
2212;DHT22;48849;48.758;9.158;2024-02-16T01:20:25;12.60;99.90
2212;DHT22;48849;48.758;9.158;2024-02-16T01:22:52;12.60;99.90
2212;DHT22;48849;48.758;9.158;2024-02-16T01:25:19;12.60;99.90
2212;DHT22;48849;48.758;9.158;2024-02-16T01:27:45;12.60;99.90
2212;DHT22;48849;48.758;9.158;2024-02-16T01:30:12;12.60;99.90
2212;DHT22;48849;48.758;9.158;2024-02-16T01:32:41;12.60;99.90
2212;DHT22;48849;48.758;9.158;2024-02-16T01:35:09;12.60;99.90
2212;DHT22;48849;48.758;9.158;2024-02-16T01:37:36;12.60;99.90
2212;DHT22;48849;48.758;9.158;2024-02-16T01:40:04;12.60;99.90
2212;DHT22;48849;48.758;9.158;2024-02-16T01:42:31;12.60;99.90
2212;DHT22;48849;48.758;9.158;2024-02-16T01:44:58;12.60;99.90
2212;DHT22;48849;48.758;9.158;2024-02-16T01:47:25;12.60;99.90
2212;DHT22;48849;48.758;9.158;2024-02-16T01:49:51;12.60;99.90
2212;DHT22;48849;48.758;9.158;2024-02-16T01:52:19;12.60;99.90
2212;DHT22;48849;48.758;9.158;2024-02-16T01:54:46;12.60;99.90
2212;DHT22;48849;48.758;9.158;2024-02-16T01:57:13;12.60;99.90
2212;DHT22;48849;48.758;9.158;2024-02-16T01:59:40;12.60;99.90
2212;DHT22;48849;48.758;9.158;2024-02-16T02:02:07;12.60;99.90
2212;DHT22;48849;48.758;9.158;2024-02-16T02:04:34;12.60;99.90
2212;DHT22;48849;48.758;9.158;2024-02-16T02:07:11;12.60;99.90
2212;DHT22;48849;48.758;9.158;2024-02-16T02:09:39;12.60;99.90
2212;DHT22;48849;48.758;9.158;2024-02-16T02:12:07;12.70;99.90
2212;DHT22;48849;48.758;9.158;2024-02-16T02:14:34;12.60;99.90
2212;DHT22;48849;48.758;9.158;2024-02-16T02:17:01;12.60;99.90
2212;DHT22;48849;48.758;9.158;2024-02-16T02:19:29;12.60;99.90
2212;DHT22;48849;48.758;9.158;2024-02-16T02:21:56;12.60;99.90
2212;DHT22;48849;48.758;9.158;2024-02-16T02:24:24;12.60;99.90
2212;DHT22;48849;48.758;9.158;2024-02-16T02:26:50;12.60;99.90
2212;DHT22;48849;48.758;9.158;2024-02-16T02:29:17;12.60;99.90
2212;DHT22;48849;48.758;9.158;2024-02-16T02:31:45;12.60;99.90
2212;DHT22;48849;48.758;9.158;2024-02-16T02:34:12;12.60;99.90
2212;DHT22;48849;48.758;9.158;2024-02-16T02:36:39;12.60;99.90
2212;DHT22;48849;48.758;9.158;2024-02-16T02:39:06;12.60;99.90
2212;DHT22;48849;48.758;9.158;2024-02-16T02:41:34;12.70;99.90
2212;DHT22;48849;48.758;9.158;2024-02-16T02:44:01;12.60;99.90
2212;DHT22;48849;48.758;9.158;2024-02-16T02:46:28;12.60;99.90
2212;DHT22;48849;48.758;9.158;2024-02-16T02:48:54;12.60;99.90
2212;DHT22;48849;48.758;9.158;2024-02-16T02:51:21;12.60;99.90
2212;DHT22;48849;48.758;9.158;2024-02-16T02:53:49;12.60;99.90
2212;DHT22;48849;48.758;9.158;2024-02-16T02:56:16;12.60;99.90
2212;DHT22;48849;48.758;9.158;2024-02-16T02:58:44;12.60;99.90
2212;DHT22;48849;48.758;9.158;2024-02-16T03:03:38;12.60;99.90
2212;DHT22;48849;48.758;9.158;2024-02-16T03:06:06;12.60;99.90
2212;DHT22;48849;48.758;9.158;2024-02-16T03:08:32;12.60;99.90
2212;DHT22;48849;48.758;9.158;2024-02-16T03:10:59;12.60;99.90
2212;DHT22;48849;48.758;9.158;2024-02-16T03:13:26;12.60;99.90
2212;DHT22;48849;48.758;9.158;2024-02-16T03:15:54;12.60;99.90
2212;DHT22;48849;48.758;9.158;2024-02-16T03:18:21;12.50;99.90
2212;DHT22;48849;48.758;9.158;2024-02-16T03:20:48;12.60;99.90
2212;DHT22;48849;48.758;9.158;2024-02-16T03:23:16;12.60;99.90
2212;DHT22;48849;48.758;9.158;2024-02-16T03:25:43;12.60;99.90
2212;DHT22;48849;48.758;9.158;2024-02-16T03:28:11;12.60;99.90
2212;DHT22;48849;48.758;9.158;2024-02-16T03:30:38;12.60;99.90
2212;DHT22;48849;48.758;9.158;2024-02-16T03:33:07;12.60;99.90
2212;DHT22;48849;48.758;9.158;2024-02-16T03:35:34;12.70;99.90
2212;DHT22;48849;48.758;9.158;2024-02-16T03:38:01;12.60;99.90
2212;DHT22;48849;48.758;9.158;2024-02-16T03:42:55;12.70;99.90
2212;DHT22;48849;48.758;9.158;2024-02-16T03:45:23;12.70;99.90
2212;DHT22;48849;48.758;9.158;2024-02-16T03:47:52;12.70;99.90
2212;DHT22;48849;48.758;9.158;2024-02-16T03:50:20;12.70;99.90
2212;DHT22;48849;48.758;9.158;2024-02-16T03:52:47;12.70;99.90
2212;DHT22;48849;48.758;9.158;2024-02-16T03:55:14;12.80;99.90
2212;DHT22;48849;48.758;9.158;2024-02-16T04:00:09;12.80;99.90
2212;DHT22;48849;48.758;9.158;2024-02-16T04:02:37;12.80;99.90
2212;DHT22;48849;48.758;9.158;2024-02-16T04:05:04;12.80;99.90
2212;DHT22;48849;48.758;9.158;2024-02-16T04:07:34;12.80;99.90
2212;DHT22;48849;48.758;9.158;2024-02-16T04:10:01;12.80;99.90
2212;DHT22;48849;48.758;9.158;2024-02-16T04:14:55;12.90;99.90
2212;DHT22;48849;48.758;9.158;2024-02-16T04:17:22;12.90;99.90
2212;DHT22;48849;48.758;9.158;2024-02-16T04:19:48;12.90;99.90
2212;DHT22;48849;48.758;9.158;2024-02-16T04:22:15;12.90;99.90
2212;DHT22;48849;48.758;9.158;2024-02-16T04:24:43;12.90;99.90
2212;DHT22;48849;48.758;9.158;2024-02-16T04:27:10;12.90;99.90
2212;DHT22;48849;48.758;9.158;2024-02-16T04:29:37;12.80;99.90
2212;DHT22;48849;48.758;9.158;2024-02-16T04:32:04;12.80;99.90
2212;DHT22;48849;48.758;9.158;2024-02-16T04:34:30;12.80;99.90
2212;DHT22;48849;48.758;9.158;2024-02-16T04:39:24;12.80;99.90
2212;DHT22;48849;48.758;9.158;2024-02-16T04:41:52;12.80;99.90
2212;DHT22;48849;48.758;9.158;2024-02-16T04:44:19;12.70;99.90
2212;DHT22;48849;48.758;9.158;2024-02-16T04:46:46;12.80;99.90
2212;DHT22;48849;48.758;9.158;2024-02-16T04:49:13;12.70;99.90
2212;DHT22;48849;48.758;9.158;2024-02-16T04:59:02;12.80;99.90
2212;DHT22;48849;48.758;9.158;2024-02-16T05:01:29;12.80;99.90
2212;DHT22;48849;48.758;9.158;2024-02-16T05:03:58;12.90;99.90
2212;DHT22;48849;48.758;9.158;2024-02-16T05:08:52;12.90;99.90
2212;DHT22;48849;48.758;9.158;2024-02-16T05:13:47;12.90;99.90
2212;DHT22;48849;48.758;9.158;2024-02-16T05:16:15;12.90;99.90
2212;DHT22;48849;48.758;9.158;2024-02-16T05:18:42;13.00;99.90
2212;DHT22;48849;48.758;9.158;2024-02-16T05:26:03;14.20;99.90
2212;DHT22;48849;48.758;9.158;2024-02-16T05:28:30;12.90;99.90
2212;DHT22;48849;48.758;9.158;2024-02-16T05:30:58;13.00;99.90
2212;DHT22;48849;48.758;9.158;2024-02-16T05:33:31;15.80;99.90
2212;DHT22;48849;48.758;9.158;2024-02-16T05:35:58;13.00;99.90
2212;DHT22;48849;48.758;9.158;2024-02-16T05:38:24;13.00;99.90
2212;DHT22;48849;48.758;9.158;2024-02-16T05:45:54;13.00;99.90
2212;DHT22;48849;48.758;9.158;2024-02-16T05:50:51;13.00;99.90
2212;DHT22;48849;48.758;9.158;2024-02-16T05:53:18;13.00;99.90
2212;DHT22;48849;48.758;9.158;2024-02-16T06:00:40;13.00;99.90
2212;DHT22;48849;48.758;9.158;2024-02-16T06:03:08;13.00;99.90
2212;DHT22;48849;48.758;9.158;2024-02-16T06:08:04;13.00;99.90
2212;DHT22;48849;48.758;9.158;2024-02-16T06:10:30;13.00;99.90
2212;DHT22;48849;48.758;9.158;2024-02-16T06:15:24;12.90;99.90
2212;DHT22;48849;48.758;9.158;2024-02-16T06:17:52;13.00;99.90
2212;DHT22;48849;48.758;9.158;2024-02-16T06:20:18;13.00;99.90
2212;DHT22;48849;48.758;9.158;2024-02-16T06:22:45;13.00;99.90
2212;DHT22;48849;48.758;9.158;2024-02-16T06:25:14;13.00;99.90
2212;DHT22;48849;48.758;9.158;2024-02-16T06:30:08;12.90;99.90
2212;DHT22;48849;48.758;9.158;2024-02-16T06:35:07;13.00;99.90
2212;DHT22;48849;48.758;9.158;2024-02-16T06:37:34;13.00;99.90
2212;DHT22;48849;48.758;9.158;2024-02-16T06:40:03;13.00;99.90
2212;DHT22;48849;48.758;9.158;2024-02-16T06:42:31;13.00;99.90
2212;DHT22;48849;48.758;9.158;2024-02-16T06:44:59;13.00;99.90
2212;DHT22;48849;48.758;9.158;2024-02-16T06:59:44;12.90;99.90
2212;DHT22;48849;48.758;9.158;2024-02-16T07:04:40;12.90;99.90
2212;DHT22;48849;48.758;9.158;2024-02-16T07:14:29;12.90;99.90
2212;DHT22;48849;48.758;9.158;2024-02-16T07:16:57;12.80;99.90
2212;DHT22;48849;48.758;9.158;2024-02-16T07:19:24;12.80;99.90
2212;DHT22;48849;48.758;9.158;2024-02-16T07:26:45;12.80;99.90
2212;DHT22;48849;48.758;9.158;2024-02-16T07:31:42;12.80;99.90
2212;DHT22;48849;48.758;9.158;2024-02-16T07:34:10;12.80;99.90
2212;DHT22;48849;48.758;9.158;2024-02-16T07:36:37;12.80;99.90
2212;DHT22;48849;48.758;9.158;2024-02-16T07:43:58;12.80;99.90
2212;DHT22;48849;48.758;9.158;2024-02-16T07:48:52;12.70;99.90
2212;DHT22;48849;48.758;9.158;2024-02-16T07:51:20;12.80;99.90
2212;DHT22;48849;48.758;9.158;2024-02-16T07:56:15;12.80;99.90
2212;DHT22;48849;48.758;9.158;2024-02-16T08:01:11;12.80;99.90
2212;DHT22;48849;48.758;9.158;2024-02-16T08:03:40;12.80;99.90
2212;DHT22;48849;48.758;9.158;2024-02-16T08:06:07;12.80;99.90
2212;DHT22;48849;48.758;9.158;2024-02-16T08:08:35;12.80;99.90
2212;DHT22;48849;48.758;9.158;2024-02-16T08:11:02;12.80;99.90
2212;DHT22;48849;48.758;9.158;2024-02-16T08:15:56;12.90;99.90
2212;DHT22;48849;48.758;9.158;2024-02-16T08:25:47;12.70;99.90
2212;DHT22;48849;48.758;9.158;2024-02-16T08:30:40;12.90;99.90
2212;DHT22;48849;48.758;9.158;2024-02-16T08:43:05;13.00;99.90
2212;DHT22;48849;48.758;9.158;2024-02-16T08:47:59;13.00;99.90
2212;DHT22;48849;48.758;9.158;2024-02-16T08:50:29;13.00;99.90
2212;DHT22;48849;48.758;9.158;2024-02-16T08:53:00;13.00;99.90
2212;DHT22;48849;48.758;9.158;2024-02-16T09:00:26;13.10;99.90
2212;DHT22;48849;48.758;9.158;2024-02-16T09:10:15;13.10;99.90
2212;DHT22;48849;48.758;9.158;2024-02-16T09:12:55;13.10;99.90
2212;DHT22;48849;48.758;9.158;2024-02-16T09:15:28;13.10;99.90
2212;DHT22;48849;48.758;9.158;2024-02-16T09:20:32;13.10;99.90
2212;DHT22;48849;48.758;9.158;2024-02-16T09:23:03;13.10;99.90
2212;DHT22;48849;48.758;9.158;2024-02-16T09:33:00;15.40;99.90
2212;DHT22;48849;48.758;9.158;2024-02-16T09:38:08;13.60;99.90
2212;DHT22;48849;48.758;9.158;2024-02-16T09:40:49;13.20;99.90
2212;DHT22;48849;48.758;9.158;2024-02-16T09:43:38;13.20;99.90
2212;DHT22;48849;48.758;9.158;2024-02-16T09:46:33;13.30;99.90
2212;DHT22;48849;48.758;9.158;2024-02-16T09:49:12;13.30;99.90
2212;DHT22;48849;48.758;9.158;2024-02-16T09:52:17;14.90;99.90
2212;DHT22;48849;48.758;9.158;2024-02-16T09:55:12;13.30;99.90
2212;DHT22;48849;48.758;9.158;2024-02-16T09:57:57;15.00;99.90
2212;DHT22;48849;48.758;9.158;2024-02-16T10:00:25;13.50;99.90
2212;DHT22;48849;48.758;9.158;2024-02-16T10:02:52;13.40;99.90
2212;DHT22;48849;48.758;9.158;2024-02-16T10:05:21;16.40;99.90
2212;DHT22;48849;48.758;9.158;2024-02-16T10:08:10;14.40;99.90
2212;DHT22;48849;48.758;9.158;2024-02-16T10:10:37;11.40;99.90
2212;DHT22;48849;48.758;9.158;2024-02-16T10:13:04;13.70;99.90
2212;DHT22;48849;48.758;9.158;2024-02-16T10:15:32;13.90;99.90
2212;DHT22;48849;48.758;9.158;2024-02-16T10:18:00;13.80;99.90
2212;DHT22;48849;48.758;9.158;2024-02-16T10:20:28;17.50;99.90
2212;DHT22;48849;48.758;9.158;2024-02-16T10:23:05;15.10;99.90
2212;DHT22;48849;48.758;9.158;2024-02-16T10:25:33;14.10;99.90
2212;DHT22;48849;48.758;9.158;2024-02-16T10:28:04;14.10;99.90
2212;DHT22;48849;48.758;9.158;2024-02-16T10:30:34;14.20;99.90
2212;DHT22;48849;48.758;9.158;2024-02-16T10:33:02;14.50;99.90
2212;DHT22;48849;48.758;9.158;2024-02-16T10:35:31;14.20;99.90
2212;DHT22;48849;48.758;9.158;2024-02-16T10:38:00;14.30;99.90
2212;DHT22;48849;48.758;9.158;2024-02-16T10:40:31;16.00;99.90
2212;DHT22;48849;48.758;9.158;2024-02-16T10:43:01;16.00;99.90
2212;DHT22;48849;48.758;9.158;2024-02-16T10:45:30;14.10;99.90
2212;DHT22;48849;48.758;9.158;2024-02-16T10:47:57;17.30;99.90
2212;DHT22;48849;48.758;9.158;2024-02-16T10:50:24;12.80;99.90
2212;DHT22;48849;48.758;9.158;2024-02-16T10:52:54;16.50;99.90
2212;DHT22;48849;48.758;9.158;2024-02-16T10:55:22;16.70;99.90
2212;DHT22;48849;48.758;9.158;2024-02-16T10:57:50;14.30;99.90
2212;DHT22;48849;48.758;9.158;2024-02-16T11:00:19;14.30;99.90
2212;DHT22;48849;48.758;9.158;2024-02-16T11:02:53;14.30;99.90
2212;DHT22;48849;48.758;9.158;2024-02-16T11:05:32;14.40;99.90
2212;DHT22;48849;48.758;9.158;2024-02-16T11:08:26;14.40;99.90
2212;DHT22;48849;48.758;9.158;2024-02-16T11:11:00;14.50;99.90
2212;DHT22;48849;48.758;9.158;2024-02-16T11:13:35;15.30;99.90
2212;DHT22;48849;48.758;9.158;2024-02-16T11:16:05;14.40;99.90
2212;DHT22;48849;48.758;9.158;2024-02-16T11:18:39;14.50;99.90
2212;DHT22;48849;48.758;9.158;2024-02-16T11:21:06;15.80;99.90
2212;DHT22;48849;48.758;9.158;2024-02-16T11:23:40;13.80;99.90
2212;DHT22;48849;48.758;9.158;2024-02-16T11:26:10;16.50;99.90
2212;DHT22;48849;48.758;9.158;2024-02-16T11:28:38;14.60;99.90
2212;DHT22;48849;48.758;9.158;2024-02-16T11:31:06;14.50;99.90
2212;DHT22;48849;48.758;9.158;2024-02-16T11:33:34;14.50;99.90
2212;DHT22;48849;48.758;9.158;2024-02-16T11:36:02;15.50;99.90
2212;DHT22;48849;48.758;9.158;2024-02-16T11:38:31;14.50;99.90
2212;DHT22;48849;48.758;9.158;2024-02-16T11:41:02;16.40;99.90
2212;DHT22;48849;48.758;9.158;2024-02-16T11:43:30;14.50;99.90
2212;DHT22;48849;48.758;9.158;2024-02-16T11:45:58;14.40;99.90
2212;DHT22;48849;48.758;9.158;2024-02-16T11:48:26;16.60;99.90
2212;DHT22;48849;48.758;9.158;2024-02-16T11:50:59;16.50;99.90
2212;DHT22;48849;48.758;9.158;2024-02-16T11:53:27;15.50;99.90
2212;DHT22;48849;48.758;9.158;2024-02-16T11:55:53;14.60;99.90
2212;DHT22;48849;48.758;9.158;2024-02-16T11:58:26;14.60;99.90
2212;DHT22;48849;48.758;9.158;2024-02-16T12:04:07;14.80;99.90
2212;DHT22;48849;48.758;9.158;2024-02-16T12:06:46;14.80;99.90
2212;DHT22;48849;48.758;9.158;2024-02-16T12:09:16;14.70;99.90
2212;DHT22;48849;48.758;9.158;2024-02-16T12:11:43;17.00;99.90
2212;DHT22;48849;48.758;9.158;2024-02-16T12:14:36;14.80;99.90
2212;DHT22;48849;48.758;9.158;2024-02-16T12:17:07;13.20;99.90
2212;DHT22;48849;48.758;9.158;2024-02-16T12:19:34;17.10;99.90
2212;DHT22;48849;48.758;9.158;2024-02-16T12:22:00;14.80;99.90
2212;DHT22;48849;48.758;9.158;2024-02-16T12:24:27;15.90;99.90
2212;DHT22;48849;48.758;9.158;2024-02-16T12:26:54;17.30;99.90
2212;DHT22;48849;48.758;9.158;2024-02-16T12:29:21;16.40;99.90
2212;DHT22;48849;48.758;9.158;2024-02-16T12:31:49;15.00;99.90
2212;DHT22;48849;48.758;9.158;2024-02-16T12:34:16;15.10;99.90
2212;DHT22;48849;48.758;9.158;2024-02-16T12:36:43;13.30;99.90
2212;DHT22;48849;48.758;9.158;2024-02-16T12:39:10;17.80;99.90
2212;DHT22;48849;48.758;9.158;2024-02-16T12:41:40;16.70;99.90
2212;DHT22;48849;48.758;9.158;2024-02-16T12:44:08;17.00;99.90
2212;DHT22;48849;48.758;9.158;2024-02-16T12:46:35;17.60;99.90
2212;DHT22;48849;48.758;9.158;2024-02-16T12:49:03;17.20;99.90
2212;DHT22;48849;48.758;9.158;2024-02-16T12:51:30;15.10;99.90
2212;DHT22;48849;48.758;9.158;2024-02-16T12:53:57;15.10;99.90
2212;DHT22;48849;48.758;9.158;2024-02-16T12:56:25;18.70;99.90
2212;DHT22;48849;48.758;9.158;2024-02-16T12:58:52;16.00;99.90
2212;DHT22;48849;48.758;9.158;2024-02-16T13:01:19;16.90;99.90
2212;DHT22;48849;48.758;9.158;2024-02-16T13:03:47;14.40;99.90
2212;DHT22;48849;48.758;9.158;2024-02-16T13:06:16;15.30;99.90
2212;DHT22;48849;48.758;9.158;2024-02-16T13:08:42;17.00;99.90
2212;DHT22;48849;48.758;9.158;2024-02-16T13:11:10;17.10;99.90
2212;DHT22;48849;48.758;9.158;2024-02-16T13:13:38;15.70;99.90
2212;DHT22;48849;48.758;9.158;2024-02-16T13:16:05;15.10;99.90
2212;DHT22;48849;48.758;9.158;2024-02-16T13:18:32;15.10;99.90
2212;DHT22;48849;48.758;9.158;2024-02-16T13:20:59;16.80;99.90
2212;DHT22;48849;48.758;9.158;2024-02-16T13:23:27;17.20;99.90
2212;DHT22;48849;48.758;9.158;2024-02-16T13:25:56;17.70;99.90
2212;DHT22;48849;48.758;9.158;2024-02-16T13:28:23;15.90;99.90
2212;DHT22;48849;48.758;9.158;2024-02-16T13:30:50;16.70;99.90
2212;DHT22;48849;48.758;9.158;2024-02-16T13:33:16;16.40;99.90
2212;DHT22;48849;48.758;9.158;2024-02-16T13:35:43;15.10;99.90
2212;DHT22;48849;48.758;9.158;2024-02-16T13:38:10;15.00;99.90
2212;DHT22;48849;48.758;9.158;2024-02-16T13:40:38;17.30;99.90
2212;DHT22;48849;48.758;9.158;2024-02-16T13:43:05;17.30;99.90
2212;DHT22;48849;48.758;9.158;2024-02-16T13:45:48;15.10;99.90
2212;DHT22;48849;48.758;9.158;2024-02-16T13:48:15;15.30;99.90
2212;DHT22;48849;48.758;9.158;2024-02-16T13:50:44;17.00;99.90
2212;DHT22;48849;48.758;9.158;2024-02-16T13:53:11;16.40;99.90
2212;DHT22;48849;48.758;9.158;2024-02-16T13:55:40;14.90;99.90
2212;DHT22;48849;48.758;9.158;2024-02-16T13:58:07;14.90;99.90
2212;DHT22;48849;48.758;9.158;2024-02-16T14:00:34;16.60;99.90
2212;DHT22;48849;48.758;9.158;2024-02-16T14:03:01;14.90;99.90
2212;DHT22;48849;48.758;9.158;2024-02-16T14:05:28;14.90;99.90
2212;DHT22;48849;48.758;9.158;2024-02-16T14:07:55;17.20;99.90
2212;DHT22;48849;48.758;9.158;2024-02-16T14:10:22;16.60;99.90
2212;DHT22;48849;48.758;9.158;2024-02-16T14:12:50;15.40;99.90
2212;DHT22;48849;48.758;9.158;2024-02-16T14:15:17;14.80;99.90
2212;DHT22;48849;48.758;9.158;2024-02-16T14:17:44;14.80;99.90
2212;DHT22;48849;48.758;9.158;2024-02-16T14:20:11;14.70;99.90
2212;DHT22;48849;48.758;9.158;2024-02-16T14:22:38;16.10;99.90
2212;DHT22;48849;48.758;9.158;2024-02-16T14:25:05;14.70;99.90
2212;DHT22;48849;48.758;9.158;2024-02-16T14:27:31;14.70;99.90
2212;DHT22;48849;48.758;9.158;2024-02-16T14:30:00;14.70;99.90
2212;DHT22;48849;48.758;9.158;2024-02-16T14:32:27;15.30;99.90
2212;DHT22;48849;48.758;9.158;2024-02-16T14:34:54;14.70;99.90
2212;DHT22;48849;48.758;9.158;2024-02-16T14:37:21;14.70;99.90
2212;DHT22;48849;48.758;9.158;2024-02-16T14:39:48;14.70;99.90
2212;DHT22;48849;48.758;9.158;2024-02-16T14:42:14;14.70;99.90
2212;DHT22;48849;48.758;9.158;2024-02-16T14:44:41;16.50;99.90
2212;DHT22;48849;48.758;9.158;2024-02-16T14:47:09;16.90;99.90
2212;DHT22;48849;48.758;9.158;2024-02-16T14:49:36;14.70;99.90
2212;DHT22;48849;48.758;9.158;2024-02-16T14:52:03;16.80;99.90
2212;DHT22;48849;48.758;9.158;2024-02-16T14:54:30;14.70;99.90
2212;DHT22;48849;48.758;9.158;2024-02-16T14:56:57;14.70;99.90
2212;DHT22;48849;48.758;9.158;2024-02-16T14:59:24;15.20;99.90
2212;DHT22;48849;48.758;9.158;2024-02-16T15:01:52;16.10;99.90
2212;DHT22;48849;48.758;9.158;2024-02-16T15:04:20;15.00;99.90
2212;DHT22;48849;48.758;9.158;2024-02-16T15:06:47;14.70;99.90
2212;DHT22;48849;48.758;9.158;2024-02-16T15:09:14;14.70;99.90
2212;DHT22;48849;48.758;9.158;2024-02-16T15:11:41;14.70;99.90
2212;DHT22;48849;48.758;9.158;2024-02-16T15:14:08;14.70;99.90
2212;DHT22;48849;48.758;9.158;2024-02-16T15:16:34;16.70;99.90
2212;DHT22;48849;48.758;9.158;2024-02-16T15:19:02;16.00;99.90
2212;DHT22;48849;48.758;9.158;2024-02-16T15:21:30;14.70;99.90
2212;DHT22;48849;48.758;9.158;2024-02-16T15:23:57;14.70;99.90
2212;DHT22;48849;48.758;9.158;2024-02-16T15:26:24;17.30;99.90
2212;DHT22;48849;48.758;9.158;2024-02-16T15:28:51;16.10;99.90
2212;DHT22;48849;48.758;9.158;2024-02-16T15:31:18;17.20;99.90
2212;DHT22;48849;48.758;9.158;2024-02-16T15:33:45;16.60;99.90
2212;DHT22;48849;48.758;9.158;2024-02-16T15:36:12;14.80;99.90
2212;DHT22;48849;48.758;9.158;2024-02-16T15:38:40;15.80;99.90
2212;DHT22;48849;48.758;9.158;2024-02-16T15:41:07;16.30;99.90
2212;DHT22;48849;48.758;9.158;2024-02-16T15:43:34;16.10;99.90
2212;DHT22;48849;48.758;9.158;2024-02-16T15:46:01;14.90;99.90
2212;DHT22;48849;48.758;9.158;2024-02-16T15:48:28;14.80;99.90
2212;DHT22;48849;48.758;9.158;2024-02-16T15:50:57;16.40;99.90
2212;DHT22;48849;48.758;9.158;2024-02-16T15:53:25;16.50;99.90
2212;DHT22;48849;48.758;9.158;2024-02-16T15:55:53;15.30;99.90
2212;DHT22;48849;48.758;9.158;2024-02-16T15:58:20;14.90;99.90
2212;DHT22;48849;48.758;9.158;2024-02-16T16:00:47;14.90;99.90
2212;DHT22;48849;48.758;9.158;2024-02-16T16:03:13;14.90;99.90
2212;DHT22;48849;48.758;9.158;2024-02-16T16:05:40;15.90;99.90
2212;DHT22;48849;48.758;9.158;2024-02-16T16:08:07;14.80;99.90
2212;DHT22;48849;48.758;9.158;2024-02-16T16:10:34;14.90;99.90
2212;DHT22;48849;48.758;9.158;2024-02-16T16:13:03;15.90;99.90
2212;DHT22;48849;48.758;9.158;2024-02-16T16:15:32;14.80;99.90
2212;DHT22;48849;48.758;9.158;2024-02-16T16:18:00;14.80;99.90
2212;DHT22;48849;48.758;9.158;2024-02-16T16:20:26;15.90;99.90
2212;DHT22;48849;48.758;9.158;2024-02-16T16:22:53;16.30;99.90
2212;DHT22;48849;48.758;9.158;2024-02-16T16:25:20;16.30;99.90
2212;DHT22;48849;48.758;9.158;2024-02-16T16:27:47;14.80;99.90
2212;DHT22;48849;48.758;9.158;2024-02-16T16:30:15;14.70;99.90
2212;DHT22;48849;48.758;9.158;2024-02-16T16:32:42;14.70;99.90
2212;DHT22;48849;48.758;9.158;2024-02-16T16:35:09;14.80;99.90
2212;DHT22;48849;48.758;9.158;2024-02-16T16:37:36;15.00;99.90
2212;DHT22;48849;48.758;9.158;2024-02-16T16:40:04;14.70;99.90
2212;DHT22;48849;48.758;9.158;2024-02-16T16:42:32;14.70;99.90
2212;DHT22;48849;48.758;9.158;2024-02-16T16:44:59;14.70;99.90
2212;DHT22;48849;48.758;9.158;2024-02-16T16:47:27;16.10;99.90
2212;DHT22;48849;48.758;9.158;2024-02-16T16:49:54;14.70;99.90
2212;DHT22;48849;48.758;9.158;2024-02-16T16:52:21;14.70;99.90
2212;DHT22;48849;48.758;9.158;2024-02-16T16:54:48;14.70;99.90
2212;DHT22;48849;48.758;9.158;2024-02-16T16:57:15;14.70;99.90
2212;DHT22;48849;48.758;9.158;2024-02-16T16:59:44;14.60;99.90
2212;DHT22;48849;48.758;9.158;2024-02-16T17:02:11;15.50;99.90
2212;DHT22;48849;48.758;9.158;2024-02-16T17:04:39;14.60;99.90
2212;DHT22;48849;48.758;9.158;2024-02-16T17:07:05;14.60;99.90
2212;DHT22;48849;48.758;9.158;2024-02-16T17:09:32;14.60;99.90
2212;DHT22;48849;48.758;9.158;2024-02-16T17:11:59;14.60;99.90
2212;DHT22;48849;48.758;9.158;2024-02-16T17:14:29;15.90;99.90
2212;DHT22;48849;48.758;9.158;2024-02-16T17:16:57;14.60;99.90
2212;DHT22;48849;48.758;9.158;2024-02-16T17:19:24;15.70;99.90
2212;DHT22;48849;48.758;9.158;2024-02-16T17:21:52;14.50;99.90
2212;DHT22;48849;48.758;9.158;2024-02-16T17:24:20;14.50;99.90
2212;DHT22;48849;48.758;9.158;2024-02-16T17:26:48;14.50;99.90
2212;DHT22;48849;48.758;9.158;2024-02-16T17:29:14;15.30;99.90
2212;DHT22;48849;48.758;9.158;2024-02-16T17:31:41;14.50;99.90
2212;DHT22;48849;48.758;9.158;2024-02-16T17:34:08;14.60;99.90
2212;DHT22;48849;48.758;9.158;2024-02-16T17:36:35;16.90;99.90
2212;DHT22;48849;48.758;9.158;2024-02-16T17:39:03;15.20;99.90
2212;DHT22;48849;48.758;9.158;2024-02-16T17:41:31;14.50;99.90
2212;DHT22;48849;48.758;9.158;2024-02-16T17:43:58;14.50;99.90
2212;DHT22;48849;48.758;9.158;2024-02-16T17:46:26;16.00;99.90
2212;DHT22;48849;48.758;9.158;2024-02-16T17:48:53;14.50;99.90
2212;DHT22;48849;48.758;9.158;2024-02-16T17:51:20;14.50;99.90
2212;DHT22;48849;48.758;9.158;2024-02-16T17:53:47;15.00;99.90
2212;DHT22;48849;48.758;9.158;2024-02-16T17:56:15;14.50;99.90
2212;DHT22;48849;48.758;9.158;2024-02-16T17:58:42;14.50;99.90
2212;DHT22;48849;48.758;9.158;2024-02-16T18:01:08;14.50;99.90
2212;DHT22;48849;48.758;9.158;2024-02-16T18:03:35;14.60;99.90
2212;DHT22;48849;48.758;9.158;2024-02-16T18:06:03;14.50;99.90
2212;DHT22;48849;48.758;9.158;2024-02-16T18:08:30;14.50;99.90
2212;DHT22;48849;48.758;9.158;2024-02-16T18:10:57;16.00;99.90
2212;DHT22;48849;48.758;9.158;2024-02-16T18:13:26;14.50;99.90
2212;DHT22;48849;48.758;9.158;2024-02-16T18:15:53;14.50;99.90
2212;DHT22;48849;48.758;9.158;2024-02-16T18:18:20;14.50;99.90
2212;DHT22;48849;48.758;9.158;2024-02-16T18:20:47;14.50;99.90
2212;DHT22;48849;48.758;9.158;2024-02-16T18:23:14;16.10;99.90
2212;DHT22;48849;48.758;9.158;2024-02-16T18:25:42;15.30;99.90
2212;DHT22;48849;48.758;9.158;2024-02-16T18:28:09;15.80;99.90
2212;DHT22;48849;48.758;9.158;2024-02-16T18:30:37;14.50;99.90
2212;DHT22;48849;48.758;9.158;2024-02-16T18:33:06;14.50;99.90
2212;DHT22;48849;48.758;9.158;2024-02-16T18:35:33;14.50;99.90
2212;DHT22;48849;48.758;9.158;2024-02-16T18:38:00;16.50;99.90
2212;DHT22;48849;48.758;9.158;2024-02-16T18:40:27;15.30;99.90